sensor_id;sensor_type;location;lat;lon;timestamp;pressure;altitude;pressure_sealevel;temperature;humidity
30598;BME280;17365;48.878;8.334;2023-12-29T00:01:39;100149.44;;;10.72;100.00
30598;BME280;17365;48.878;8.334;2023-12-29T00:04:04;100163.28;;;10.74;100.00
30598;BME280;17365;48.878;8.334;2023-12-29T00:06:30;100161.56;;;10.73;100.00
30598;BME280;17365;48.878;8.334;2023-12-29T00:08:55;100162.44;;;10.65;100.00
30598;BME280;17365;48.878;8.334;2023-12-29T00:11:20;100158.06;;;10.64;100.00
30598;BME280;17365;48.878;8.334;2023-12-29T00:13:46;100165.88;;;10.55;100.00
30598;BME280;17365;48.878;8.334;2023-12-29T00:16:11;100158.94;;;10.54;100.00
30598;BME280;17365;48.878;8.334;2023-12-29T00:18:37;100165.81;;;10.45;100.00
30598;BME280;17365;48.878;8.334;2023-12-29T00:21:02;100172.78;;;10.56;100.00
30598;BME280;17365;48.878;8.334;2023-12-29T00:23:27;100174.50;;;10.54;100.00
30598;BME280;17365;48.878;8.334;2023-12-29T00:25:52;100173.56;;;10.39;100.00
30598;BME280;17365;48.878;8.334;2023-12-29T00:28:17;100177.91;;;10.40;100.00
30598;BME280;17365;48.878;8.334;2023-12-29T00:30:42;100177.88;;;10.31;100.00
30598;BME280;17365;48.878;8.334;2023-12-29T00:33:08;100180.50;;;10.34;100.00
30598;BME280;17365;48.878;8.334;2023-12-29T00:35:33;100175.34;;;10.42;100.00
30598;BME280;17365;48.878;8.334;2023-12-29T00:38:01;100177.94;;;10.48;100.00
30598;BME280;17365;48.878;8.334;2023-12-29T00:40:26;100169.25;;;10.41;100.00
30598;BME280;17365;48.878;8.334;2023-12-29T00:42:52;100167.53;;;10.31;100.00
30598;BME280;17365;48.878;8.334;2023-12-29T00:45:17;100162.28;;;10.28;100.00
30598;BME280;17365;48.878;8.334;2023-12-29T00:47:42;100156.22;;;10.20;100.00
30598;BME280;17365;48.878;8.334;2023-12-29T00:50:07;100150.19;;;10.24;100.00
30598;BME280;17365;48.878;8.334;2023-12-29T00:52:32;100147.53;;;10.16;100.00
30598;BME280;17365;48.878;8.334;2023-12-29T00:54:58;100151.94;;;10.27;100.00
30598;BME280;17365;48.878;8.334;2023-12-29T00:57:24;100145.91;;;10.31;100.00
30598;BME280;17365;48.878;8.334;2023-12-29T00:59:49;100146.75;;;10.27;100.00
30598;BME280;17365;48.878;8.334;2023-12-29T01:02:14;100141.47;;;10.19;100.00
30598;BME280;17365;48.878;8.334;2023-12-29T01:04:39;100135.47;;;10.20;100.00
30598;BME280;17365;48.878;8.334;2023-12-29T01:07:05;100144.16;;;10.24;100.00
30598;BME280;17365;48.878;8.334;2023-12-29T01:09:30;100140.69;;;10.22;100.00
30598;BME280;17365;48.878;8.334;2023-12-29T01:11:55;100129.47;;;10.24;100.00
30598;BME280;17365;48.878;8.334;2023-12-29T01:14:20;100132.91;;;10.23;100.00
30598;BME280;17365;48.878;8.334;2023-12-29T01:16:46;100144.16;;;10.28;100.00
30598;BME280;17365;48.878;8.334;2023-12-29T01:19:11;100138.09;;;10.26;100.00
30598;BME280;17365;48.878;8.334;2023-12-29T01:21:39;100134.56;;;10.18;100.00
30598;BME280;17365;48.878;8.334;2023-12-29T01:24:04;100130.28;;;10.20;100.00
30598;BME280;17365;48.878;8.334;2023-12-29T01:26:29;100134.63;;;10.23;100.00
30598;BME280;17365;48.878;8.334;2023-12-29T01:28:55;100131.09;;;10.13;100.00
30598;BME280;17365;48.878;8.334;2023-12-29T01:31:20;100131.09;;;10.13;100.00
30598;BME280;17365;48.878;8.334;2023-12-29T01:33:45;100131.06;;;10.05;100.00
30598;BME280;17365;48.878;8.334;2023-12-29T01:36:16;100141.47;;;10.19;100.00
30598;BME280;17365;48.878;8.334;2023-12-29T01:38:41;100144.09;;;10.20;100.00
30598;BME280;17365;48.878;8.334;2023-12-29T01:41:07;100140.63;;;10.17;100.00
30598;BME280;17365;48.878;8.334;2023-12-29T01:43:32;100138.88;;;10.11;100.00
30598;BME280;17365;48.878;8.334;2023-12-29T01:45:57;100132.84;;;10.15;100.00
30598;BME280;17365;48.878;8.334;2023-12-29T01:48:23;100136.25;;;10.07;100.00
30598;BME280;17365;48.878;8.334;2023-12-29T01:50:49;100135.44;;;10.12;100.00
30598;BME280;17365;48.878;8.334;2023-12-29T01:53:14;100133.72;;;10.17;100.00
30598;BME280;17365;48.878;8.334;2023-12-29T01:55:39;100138.03;;;10.15;100.00
30598;BME280;17365;48.878;8.334;2023-12-29T01:58:04;100130.25;;;10.17;100.00
30598;BME280;17365;48.878;8.334;2023-12-29T02:00:30;100119.00;;;10.12;100.00
30598;BME280;17365;48.878;8.334;2023-12-29T02:02:57;100126.78;;;10.10;100.00
30598;BME280;17365;48.878;8.334;2023-12-29T02:05:22;100126.78;;;10.09;100.00
30598;BME280;17365;48.878;8.334;2023-12-29T02:07:48;100121.66;;;10.19;100.00
30598;BME280;17365;48.878;8.334;2023-12-29T02:10:14;100120.75;;;10.16;100.00
30598;BME280;17365;48.878;8.334;2023-12-29T02:12:40;100109.50;;;10.11;100.00
30598;BME280;17365;48.878;8.334;2023-12-29T02:15:06;100113.81;;;10.09;100.00
30598;BME280;17365;48.878;8.334;2023-12-29T02:17:35;100109.47;;;10.06;100.00
30598;BME280;17365;48.878;8.334;2023-12-29T02:20:01;100104.31;;;10.12;100.00
30598;BME280;17365;48.878;8.334;2023-12-29T02:22:26;100114.69;;;10.11;100.00
30598;BME280;17365;48.878;8.334;2023-12-29T02:24:51;100102.59;;;10.11;100.00
30598;BME280;17365;48.878;8.334;2023-12-29T02:27:31;100094.81;;;10.19;100.00
30598;BME280;17365;48.878;8.334;2023-12-29T02:32:43;100099.22;;;10.25;100.00
30598;BME280;17365;48.878;8.334;2023-12-29T02:35:10;100099.16;;;10.17;100.00
30598;BME280;17365;48.878;8.334;2023-12-29T02:37:37;100089.63;;;10.16;100.00
30598;BME280;17365;48.878;8.334;2023-12-29T02:40:04;100083.66;;;10.25;100.00
30598;BME280;17365;48.878;8.334;2023-12-29T02:42:29;100080.19;;;10.26;100.00
30598;BME280;17365;48.878;8.334;2023-12-29T02:44:54;100089.69;;;10.28;100.00
30598;BME280;17365;48.878;8.334;2023-12-29T02:47:19;100067.22;;;10.26;100.00
30598;BME280;17365;48.878;8.334;2023-12-29T02:49:46;100070.69;;;10.26;100.00
30598;BME280;17365;48.878;8.334;2023-12-29T02:52:11;100064.63;;;10.27;100.00
30598;BME280;17365;48.878;8.334;2023-12-29T02:54:37;100073.31;;;10.31;100.00
30598;BME280;17365;48.878;8.334;2023-12-29T02:57:02;100061.22;;;10.34;100.00
30598;BME280;17365;48.878;8.334;2023-12-29T02:59:27;100058.59;;;10.24;100.00
30598;BME280;17365;48.878;8.334;2023-12-29T03:01:52;100058.53;;;10.19;100.00
30598;BME280;17365;48.878;8.334;2023-12-29T03:04:17;100057.72;;;10.22;100.00
30598;BME280;17365;48.878;8.334;2023-12-29T03:06:42;100065.50;;;10.25;100.00
30598;BME280;17365;48.878;8.334;2023-12-29T03:09:08;100068.97;;;10.24;100.00
30598;BME280;17365;48.878;8.334;2023-12-29T03:11:33;100069.81;;;10.24;100.00
30598;BME280;17365;48.878;8.334;2023-12-29T03:13:58;100067.25;;;10.23;100.00
30598;BME280;17365;48.878;8.334;2023-12-29T03:16:23;100057.72;;;10.22;100.00
30598;BME280;17365;48.878;8.334;2023-12-29T03:18:48;100069.81;;;10.26;100.00
30598;BME280;17365;48.878;8.334;2023-12-29T03:21:13;100069.81;;;10.27;100.00
30598;BME280;17365;48.878;8.334;2023-12-29T03:23:39;100065.50;;;10.25;100.00
30598;BME280;17365;48.878;8.334;2023-12-29T03:26:04;100062.84;;;10.14;100.00
30598;BME280;17365;48.878;8.334;2023-12-29T03:28:29;100067.16;;;10.15;100.00
30598;BME280;17365;48.878;8.334;2023-12-29T03:30:54;100061.97;;;10.03;100.00
30598;BME280;17365;48.878;8.334;2023-12-29T03:33:19;100051.59;;;10.00;100.00
30598;BME280;17365;48.878;8.334;2023-12-29T03:35:45;100053.28;;;9.96;100.00
30598;BME280;17365;48.878;8.334;2023-12-29T03:38:10;100054.13;;;9.86;100.00
30598;BME280;17365;48.878;8.334;2023-12-29T03:40:35;100059.31;;;9.90;100.00
30598;BME280;17365;48.878;8.334;2023-12-29T03:43:00;100056.69;;;9.78;100.00
30598;BME280;17365;48.878;8.334;2023-12-29T03:45:25;100055.00;;;9.92;100.00
30598;BME280;17365;48.878;8.334;2023-12-29T03:47:50;100048.97;;;9.90;100.00
30598;BME280;17365;48.878;8.334;2023-12-29T03:50:15;100049.81;;;9.89;100.00
30598;BME280;17365;48.878;8.334;2023-12-29T03:52:41;100058.47;;;9.91;100.00
30598;BME280;17365;48.878;8.334;2023-12-29T03:55:06;100050.72;;;10.01;100.00
30598;BME280;17365;48.878;8.334;2023-12-29T03:57:31;100050.69;;;9.95;100.00
30598;BME280;17365;48.878;8.334;2023-12-29T03:59:56;100056.72;;;9.87;100.00
30598;BME280;17365;48.878;8.334;2023-12-29T04:02:22;100038.59;;;9.90;100.00
30598;BME280;17365;48.878;8.334;2023-12-29T04:04:47;100051.56;;;9.93;100.00
30598;BME280;17365;48.878;8.334;2023-12-29T04:07:12;100036.91;;;10.00;100.00
30598;BME280;17365;48.878;8.334;2023-12-29T04:09:37;100039.50;;;9.99;100.00
30598;BME280;17365;48.878;8.334;2023-12-29T04:12:02;100034.31;;;10.00;100.00
30598;BME280;17365;48.878;8.334;2023-12-29T04:14:28;100036.91;;;10.03;100.00
30598;BME280;17365;48.878;8.334;2023-12-29T04:16:53;100037.75;;;10.01;100.00
30598;BME280;17365;48.878;8.334;2023-12-29T04:19:18;100037.78;;;10.14;100.00
30598;BME280;17365;48.878;8.334;2023-12-29T04:21:43;100036.06;;;10.15;100.00
30598;BME280;17365;48.878;8.334;2023-12-29T04:24:09;100035.19;;;10.19;100.00
30598;BME280;17365;48.878;8.334;2023-12-29T04:26:37;100036.06;;;10.16;100.00
30598;BME280;17365;48.878;8.334;2023-12-29T04:29:02;100038.66;;;10.09;100.00
30598;BME280;17365;48.878;8.334;2023-12-29T04:31:27;100041.25;;;10.12;100.00
30598;BME280;17365;48.878;8.334;2023-12-29T04:33:53;100045.59;;;10.20;100.00
30598;BME280;17365;48.878;8.334;2023-12-29T04:36:18;100046.44;;;10.15;100.00
30598;BME280;17365;48.878;8.334;2023-12-29T04:38:43;100048.19;;;10.20;100.00
30598;BME280;17365;48.878;8.334;2023-12-29T04:41:08;100048.22;;;10.25;100.00
30598;BME280;17365;48.878;8.334;2023-12-29T04:43:33;100058.53;;;10.19;100.00
30598;BME280;17365;48.878;8.334;2023-12-29T04:45:59;100056.84;;;10.19;100.00
30598;BME280;17365;48.878;8.334;2023-12-29T04:48:25;100056.81;;;10.15;100.00
30598;BME280;17365;48.878;8.334;2023-12-29T04:50:50;100056.81;;;10.18;100.00
30598;BME280;17365;48.878;8.334;2023-12-29T04:53:15;100058.53;;;10.13;100.00
30598;BME280;17365;48.878;8.334;2023-12-29T04:55:40;100064.59;;;10.09;100.00
30598;BME280;17365;48.878;8.334;2023-12-29T04:58:06;100055.06;;;10.12;100.00
30598;BME280;17365;48.878;8.334;2023-12-29T05:00:31;100055.06;;;10.12;100.00
30598;BME280;17365;48.878;8.334;2023-12-29T05:02:56;100057.66;;;10.12;100.00
30598;BME280;17365;48.878;8.334;2023-12-29T05:05:21;100073.22;;;10.11;100.00
30598;BME280;17365;48.878;8.334;2023-12-29T05:07:46;100073.19;;;10.06;100.00
30598;BME280;17365;48.878;8.334;2023-12-29T05:10:12;100068.88;;;10.02;100.00
30598;BME280;17365;48.878;8.334;2023-12-29T05:12:37;100070.63;;;10.14;100.00
30598;BME280;17365;48.878;8.334;2023-12-29T05:15:02;100069.75;;;10.09;100.00
30598;BME280;17365;48.878;8.334;2023-12-29T05:17:27;100055.03;;;10.06;100.00
30598;BME280;17365;48.878;8.334;2023-12-29T05:19:53;100062.84;;;10.09;100.00
30598;BME280;17365;48.878;8.334;2023-12-29T05:22:18;100061.91;;;9.93;100.00
30598;BME280;17365;48.878;8.334;2023-12-29T05:24:43;100049.81;;;9.88;100.00
30598;BME280;17365;48.878;8.334;2023-12-29T05:27:09;100055.81;;;9.81;100.00
30598;BME280;17365;48.878;8.334;2023-12-29T05:29:35;100057.50;;;9.71;100.00
30598;BME280;17365;48.878;8.334;2023-12-29T05:32:00;100046.31;;;9.78;100.00
30598;BME280;17365;48.878;8.334;2023-12-29T05:34:27;100058.41;;;9.79;100.00
30598;BME280;17365;48.878;8.334;2023-12-29T05:36:52;100055.81;;;9.81;100.00
30598;BME280;17365;48.878;8.334;2023-12-29T05:39:17;100048.09;;;9.93;100.00
30598;BME280;17365;48.878;8.334;2023-12-29T05:41:43;100049.81;;;9.89;100.00
30598;BME280;17365;48.878;8.334;2023-12-29T05:44:08;100043.78;;;9.87;100.00
30598;BME280;17365;48.878;8.334;2023-12-29T05:46:33;100048.97;;;9.92;100.00
30598;BME280;17365;48.878;8.334;2023-12-29T05:48:58;100055.00;;;9.92;100.00
30598;BME280;17365;48.878;8.334;2023-12-29T05:51:24;100049.88;;;9.97;100.00
30598;BME280;17365;48.878;8.334;2023-12-29T05:53:49;100049.81;;;9.96;100.00
30598;BME280;17365;48.878;8.334;2023-12-29T05:56:14;100054.09;;;9.84;100.00
30598;BME280;17365;48.878;8.334;2023-12-29T05:58:42;100051.56;;;9.90;100.00
30598;BME280;17365;48.878;8.334;2023-12-29T06:01:08;100047.28;;;9.99;100.00
30598;BME280;17365;48.878;8.334;2023-12-29T06:03:33;100043.78;;;9.87;100.00
30598;BME280;17365;48.878;8.334;2023-12-29T06:05:58;100042.00;;;9.83;100.00
30598;BME280;17365;48.878;8.334;2023-12-29T06:08:23;100043.78;;;9.86;100.00
30598;BME280;17365;48.878;8.334;2023-12-29T06:10:48;100045.50;;;9.91;100.00
30598;BME280;17365;48.878;8.334;2023-12-29T06:13:14;100045.50;;;9.96;100.00
30598;BME280;17365;48.878;8.334;2023-12-29T06:15:39;100048.13;;;10.01;100.00
30598;BME280;17365;48.878;8.334;2023-12-29T06:18:05;100049.00;;;10.00;100.00
30598;BME280;17365;48.878;8.334;2023-12-29T06:20:30;100043.81;;;10.01;100.00
30598;BME280;17365;48.878;8.334;2023-12-29T06:22:55;100044.69;;;10.08;100.00
30598;BME280;17365;48.878;8.334;2023-12-29T06:25:20;100043.84;;;10.12;100.00
30598;BME280;17365;48.878;8.334;2023-12-29T06:27:46;100052.47;;;10.12;100.00
30598;BME280;17365;48.878;8.334;2023-12-29T06:30:11;100049.00;;;10.06;100.00
30598;BME280;17365;48.878;8.334;2023-12-29T06:32:36;100060.22;;;10.05;100.00
30598;BME280;17365;48.878;8.334;2023-12-29T06:35:02;100063.69;;;10.07;100.00
30598;BME280;17365;48.878;8.334;2023-12-29T06:37:28;100043.81;;;10.06;100.00
30598;BME280;17365;48.878;8.334;2023-12-29T06:39:53;100046.41;;;10.03;100.00
30598;BME280;17365;48.878;8.334;2023-12-29T06:42:18;100050.72;;;10.01;100.00
30598;BME280;17365;48.878;8.334;2023-12-29T06:44:43;100043.78;;;9.95;100.00
30598;BME280;17365;48.878;8.334;2023-12-29T06:47:09;100053.28;;;9.95;100.00
30598;BME280;17365;48.878;8.334;2023-12-29T06:49:34;100041.19;;;9.93;100.00
30598;BME280;17365;48.878;8.334;2023-12-29T06:51:59;100041.19;;;9.95;100.00
30598;BME280;17365;48.878;8.334;2023-12-29T06:54:24;100039.50;;;10.02;100.00
30598;BME280;17365;48.878;8.334;2023-12-29T06:56:50;100033.44;;;10.04;100.00
30598;BME280;17365;48.878;8.334;2023-12-29T06:59:15;100036.06;;;10.09;100.00
30598;BME280;17365;48.878;8.334;2023-12-29T07:01:41;100041.25;;;10.12;100.00
30598;BME280;17365;48.878;8.334;2023-12-29T07:04:06;100040.34;;;10.04;100.00
30598;BME280;17365;48.878;8.334;2023-12-29T07:06:35;100048.16;;;10.16;100.00
30598;BME280;17365;48.878;8.334;2023-12-29T07:09:00;100049.06;;;10.21;100.00
30598;BME280;17365;48.878;8.334;2023-12-29T07:11:26;100050.75;;;10.13;100.00
30598;BME280;17365;48.878;8.334;2023-12-29T07:13:51;100050.81;;;10.22;100.00
30598;BME280;17365;48.878;8.334;2023-12-29T07:16:16;100049.09;;;10.23;100.00
30598;BME280;17365;48.878;8.334;2023-12-29T07:18:41;100053.34;;;10.19;100.00
30598;BME280;17365;48.878;8.334;2023-12-29T07:21:07;100045.56;;;10.14;100.00
30598;BME280;17365;48.878;8.334;2023-12-29T07:23:32;100043.03;;;10.25;100.00
30598;BME280;17365;48.878;8.334;2023-12-29T07:25:57;100039.59;;;10.23;100.00
30598;BME280;17365;48.878;8.334;2023-12-29T07:28:23;100044.78;;;10.22;100.00
30598;BME280;17365;48.878;8.334;2023-12-29T07:30:48;100039.53;;;10.18;100.00
30598;BME280;17365;48.878;8.334;2023-12-29T07:33:13;100051.66;;;10.21;100.00
30598;BME280;17365;48.878;8.334;2023-12-29T07:35:38;100042.16;;;10.25;100.00
30598;BME280;17365;48.878;8.334;2023-12-29T07:38:03;100051.63;;;10.18;100.00
30598;BME280;17365;48.878;8.334;2023-12-29T07:40:28;100049.94;;;10.25;100.00
30598;BME280;17365;48.878;8.334;2023-12-29T07:42:54;100044.72;;;10.14;100.00
30598;BME280;17365;48.878;8.334;2023-12-29T07:45:19;100044.72;;;10.14;100.00
30598;BME280;17365;48.878;8.334;2023-12-29T07:47:44;100043.84;;;10.16;100.00
30598;BME280;17365;48.878;8.334;2023-12-29T07:50:09;100045.56;;;10.13;100.00
30598;BME280;17365;48.878;8.334;2023-12-29T07:52:34;100043.03;;;10.22;100.00
30598;BME280;17365;48.878;8.334;2023-12-29T07:55:00;100040.38;;;10.16;100.00
30598;BME280;17365;48.878;8.334;2023-12-29T07:57:25;100049.03;;;10.10;100.00
30598;BME280;17365;48.878;8.334;2023-12-29T07:59:50;100049.03;;;10.10;100.00
30598;BME280;17365;48.878;8.334;2023-12-29T08:02:15;100056.84;;;10.19;100.00
30598;BME280;17365;48.878;8.334;2023-12-29T08:04:41;100062.03;;;10.21;100.00
30598;BME280;17365;48.878;8.334;2023-12-29T08:07:06;100064.59;;;10.18;100.00
30598;BME280;17365;48.878;8.334;2023-12-29T08:09:32;100067.16;;;10.10;100.00
30598;BME280;17365;48.878;8.334;2023-12-29T08:11:57;100062.00;;;10.12;100.00
30598;BME280;17365;48.878;8.334;2023-12-29T08:14:22;100066.38;;;10.25;100.00
30598;BME280;17365;48.878;8.334;2023-12-29T08:16:47;100054.28;;;10.24;100.00
30598;BME280;17365;48.878;8.334;2023-12-29T08:19:12;100065.50;;;10.26;100.00
30598;BME280;17365;48.878;8.334;2023-12-29T08:21:39;100068.97;;;10.25;100.00
30598;BME280;17365;48.878;8.334;2023-12-29T08:24:05;100071.50;;;10.11;100.00
30598;BME280;17365;48.878;8.334;2023-12-29T08:26:30;100072.31;;;10.06;100.00
30598;BME280;17365;48.878;8.334;2023-12-29T08:28:55;100083.59;;;10.15;100.00
30598;BME280;17365;48.878;8.334;2023-12-29T08:31:20;100086.25;;;10.29;100.00
30598;BME280;17365;48.878;8.334;2023-12-29T08:33:48;100075.88;;;10.26;100.00
30598;BME280;17365;48.878;8.334;2023-12-29T08:36:13;100081.97;;;10.31;100.00
30598;BME280;17365;48.878;8.334;2023-12-29T08:38:38;100090.50;;;10.16;100.00
30598;BME280;17365;48.878;8.334;2023-12-29T08:41:03;100089.69;;;10.30;100.00
30598;BME280;17365;48.878;8.334;2023-12-29T08:43:29;100093.19;;;10.36;100.00
30598;BME280;17365;48.878;8.334;2023-12-29T08:45:54;100083.66;;;10.29;100.00
30598;BME280;17365;48.878;8.334;2023-12-29T08:48:19;100090.63;;;10.42;100.00
30598;BME280;17365;48.878;8.334;2023-12-29T08:50:45;100092.34;;;10.45;100.00
30598;BME280;17365;48.878;8.334;2023-12-29T08:53:10;100083.69;;;10.49;100.00
30598;BME280;17365;48.878;8.334;2023-12-29T08:55:35;100089.78;;;10.62;100.00
30598;BME280;17365;48.878;8.334;2023-12-29T08:58:01;100083.72;;;10.72;100.00
30598;BME280;17365;48.878;8.334;2023-12-29T09:00:26;100085.47;;;10.68;100.00
30598;BME280;17365;48.878;8.334;2023-12-29T09:02:51;100087.19;;;10.72;100.00
30598;BME280;17365;48.878;8.334;2023-12-29T09:05:16;100083.72;;;10.63;100.00
30598;BME280;17365;48.878;8.334;2023-12-29T09:07:41;100094.97;;;10.74;100.00
30598;BME280;17365;48.878;8.334;2023-12-29T09:10:07;100088.06;;;10.70;100.00
30598;BME280;17365;48.878;8.334;2023-12-29T09:12:36;100089.78;;;10.75;100.00
30598;BME280;17365;48.878;8.334;2023-12-29T09:15:01;100086.34;;;10.66;100.00
30598;BME280;17365;48.878;8.334;2023-12-29T09:17:27;100084.59;;;10.71;100.00
30598;BME280;17365;48.878;8.334;2023-12-29T09:19:52;100092.41;;;10.77;100.00
30598;BME280;17365;48.878;8.334;2023-12-29T09:22:17;100098.41;;;10.64;100.00
30598;BME280;17365;48.878;8.334;2023-12-29T09:24:42;100093.22;;;10.61;100.00
30598;BME280;17365;48.878;8.334;2023-12-29T09:27:08;100094.13;;;10.66;100.00
30598;BME280;17365;48.878;8.334;2023-12-29T09:29:33;100094.97;;;10.72;100.00
30598;BME280;17365;48.878;8.334;2023-12-29T09:31:59;100094.09;;;10.75;100.00
30598;BME280;17365;48.878;8.334;2023-12-29T09:34:24;100093.25;;;10.73;100.00
30598;BME280;17365;48.878;8.334;2023-12-29T09:36:49;100097.56;;;10.82;100.00
30598;BME280;17365;48.878;8.334;2023-12-29T09:39:14;100096.72;;;10.78;100.00
30598;BME280;17365;48.878;8.334;2023-12-29T09:41:41;100094.97;;;10.85;100.00
30598;BME280;17365;48.878;8.334;2023-12-29T09:44:08;100098.47;;;10.88;100.00
30598;BME280;17365;48.878;8.334;2023-12-29T09:46:37;100093.25;;;10.91;100.00
30598;BME280;17365;48.878;8.334;2023-12-29T09:49:03;100096.69;;;10.96;100.00
30598;BME280;17365;48.878;8.334;2023-12-29T09:51:30;100103.63;;;11.06;100.00
30598;BME280;17365;48.878;8.334;2023-12-29T09:53:56;100079.41;;;11.07;100.00
30598;BME280;17365;48.878;8.334;2023-12-29T09:56:23;100095.84;;;11.06;100.00
30598;BME280;17365;48.878;8.334;2023-12-29T09:58:49;100094.13;;;11.15;100.00
30598;BME280;17365;48.878;8.334;2023-12-29T10:01:17;100098.44;;;11.13;100.00
30598;BME280;17365;48.878;8.334;2023-12-29T10:03:43;100101.03;;;11.17;100.00
30598;BME280;17365;48.878;8.334;2023-12-29T10:06:08;100100.16;;;11.17;100.00
30598;BME280;17365;48.878;8.334;2023-12-29T10:08:36;100082.84;;;11.26;100.00
30598;BME280;17365;48.878;8.334;2023-12-29T10:11:02;100074.16;;;11.41;100.00
30598;BME280;17365;48.878;8.334;2023-12-29T10:13:30;100068.06;;;11.51;100.00
30598;BME280;17365;48.878;8.334;2023-12-29T10:16:04;100070.66;;;11.60;100.00
30598;BME280;17365;48.878;8.334;2023-12-29T10:18:37;100067.16;;;11.68;100.00
30598;BME280;17365;48.878;8.334;2023-12-29T10:21:23;100068.84;;;11.75;100.00
30598;BME280;17365;48.878;8.334;2023-12-29T10:26:20;100056.78;;;11.63;100.00
30598;BME280;17365;48.878;8.334;2023-12-29T10:28:46;100060.22;;;11.70;100.00
30598;BME280;17365;48.878;8.334;2023-12-29T10:31:13;100050.69;;;11.70;100.00
30598;BME280;17365;48.878;8.334;2023-12-29T10:33:39;100050.72;;;11.62;100.00
30598;BME280;17365;48.878;8.334;2023-12-29T10:36:04;100041.22;;;11.52;100.00
30598;BME280;17365;48.878;8.334;2023-12-29T10:38:32;100050.75;;;11.58;100.00
30598;BME280;17365;48.878;8.334;2023-12-29T10:41:10;100040.31;;;11.70;100.00
30598;BME280;17365;48.878;8.334;2023-12-29T10:43:36;100034.25;;;11.65;100.00
30598;BME280;17365;48.878;8.334;2023-12-29T10:46:05;100037.72;;;11.70;100.00
30598;BME280;17365;48.878;8.334;2023-12-29T10:48:30;100029.94;;;11.61;100.00
30598;BME280;17365;48.878;8.334;2023-12-29T10:50:56;100040.31;;;11.67;100.00
30598;BME280;17365;48.878;8.334;2023-12-29T10:53:21;100039.44;;;11.68;100.00
30598;BME280;17365;48.878;8.334;2023-12-29T10:55:47;100035.09;;;11.70;100.00
30598;BME280;17365;48.878;8.334;2023-12-29T10:58:12;100034.19;;;11.85;100.00
30598;BME280;17365;48.878;8.334;2023-12-29T11:00:40;100028.91;;;12.03;100.00
30598;BME280;17365;48.878;8.334;2023-12-29T11:03:06;100030.59;;;12.09;100.00
30598;BME280;17365;48.878;8.334;2023-12-29T11:05:32;100024.50;;;12.17;100.00
30598;BME280;17365;48.878;8.334;2023-12-29T11:07:58;100027.03;;;12.28;100.00
30598;BME280;17365;48.878;8.334;2023-12-29T11:10:24;100018.41;;;12.18;100.00
30598;BME280;17365;48.878;8.334;2023-12-29T11:12:50;100015.88;;;12.08;100.00
30598;BME280;17365;48.878;8.334;2023-12-29T11:15:17;100018.44;;;12.11;100.00
30598;BME280;17365;48.878;8.334;2023-12-29T11:17:42;100019.41;;;12.02;100.00
30598;BME280;17365;48.878;8.334;2023-12-29T11:20:14;100015.94;;;12.02;100.00
30598;BME280;17365;48.878;8.334;2023-12-29T11:22:41;100010.72;;;12.00;100.00
30598;BME280;17365;48.878;8.334;2023-12-29T11:25:06;100016.81;;;11.94;100.00
30598;BME280;17365;48.878;8.334;2023-12-29T11:27:33;100018.50;;;12.00;100.00
30598;BME280;17365;48.878;8.334;2023-12-29T11:29:59;100016.88;;;11.90;100.00
30598;BME280;17365;48.878;8.334;2023-12-29T11:32:27;100014.19;;;11.99;100.00
30598;BME280;17365;48.878;8.334;2023-12-29T11:34:57;100012.50;;;11.92;100.00
30598;BME280;17365;48.878;8.334;2023-12-29T11:39:52;100005.47;;;12.08;100.00
30598;BME280;17365;48.878;8.334;2023-12-29T11:42:23;100008.91;;;12.11;100.00
30598;BME280;17365;48.878;8.334;2023-12-29T11:44:52;100003.81;;;12.01;100.00
30598;BME280;17365;48.878;8.334;2023-12-29T11:47:36;99998.59;;;11.99;100.00
30598;BME280;17365;48.878;8.334;2023-12-29T11:50:02;100000.31;;;11.99;100.00
30598;BME280;17365;48.878;8.334;2023-12-29T11:52:37;99988.09;;;12.11;100.00
30598;BME280;17365;48.878;8.334;2023-12-29T11:55:07;99984.59;;;12.20;100.00
30598;BME280;17365;48.878;8.334;2023-12-29T11:57:33;99986.31;;;12.26;100.00
30598;BME280;17365;48.878;8.334;2023-12-29T11:59:58;99982.75;;;12.39;100.00
30598;BME280;17365;48.878;8.334;2023-12-29T12:02:27;99978.47;;;12.30;100.00
30598;BME280;17365;48.878;8.334;2023-12-29T12:04:52;99972.34;;;12.33;100.00
30598;BME280;17365;48.878;8.334;2023-12-29T12:09:49;99973.22;;;12.38;100.00
30598;BME280;17365;48.878;8.334;2023-12-29T12:12:15;99981.16;;;12.18;100.00
30598;BME280;17365;48.878;8.334;2023-12-29T12:15:00;99971.53;;;12.28;100.00
30598;BME280;17365;48.878;8.334;2023-12-29T12:17:30;99981.22;;;12.12;100.00
30598;BME280;17365;48.878;8.334;2023-12-29T12:19:57;99979.31;;;12.32;100.00
30598;BME280;17365;48.878;8.334;2023-12-29T12:22:23;99975.91;;;12.21;100.00
30598;BME280;17365;48.878;8.334;2023-12-29T12:24:49;99989.00;;;12.13;100.00
30598;BME280;17365;48.878;8.334;2023-12-29T12:27:15;99987.22;;;12.17;100.00
30598;BME280;17365;48.878;8.334;2023-12-29T12:29:40;99972.53;;;12.08;100.00
30598;BME280;17365;48.878;8.334;2023-12-29T12:32:06;99981.19;;;12.09;100.00
30598;BME280;17365;48.878;8.334;2023-12-29T12:34:38;99977.69;;;12.16;100.00
30598;BME280;17365;48.878;8.334;2023-12-29T12:37:04;99980.25;;;12.23;100.00
30598;BME280;17365;48.878;8.334;2023-12-29T12:39:39;99964.72;;;12.13;100.00
30598;BME280;17365;48.878;8.334;2023-12-29T12:42:05;99977.72;;;12.11;100.00
30598;BME280;17365;48.878;8.334;2023-12-29T12:44:30;99963.84;;;12.14;100.00
30598;BME280;17365;48.878;8.334;2023-12-29T12:46:56;99966.56;;;11.95;100.00